Time;durP1;ratioP1;P1;durP2;ratioP2;P2;SDS_P1;SDS_P2;PMS_P1;PMS_P2;Temp;Humidity;BMP_temperature;BMP_pressure;BME280_temperature;BME280_humidity;BME280_pressure;Samples;Min_cycle;Max_cycle;Signal;HPM_P1;HPM_P2
2023/01/03 00:00:36;;;;;;;7.22;1.50;;;;;;;;;;4998478;28;20030;-80
2023/01/03 00:03:02;;;;;;;3.13;1.45;;;;;;;;;;5001025;28;20109;-80
2023/01/03 00:05:28;;;;;;;2.78;1.27;;;;;;;;;;4998906;28;20532;-80
2023/01/03 00:07:54;;;;;;;1.58;1.35;;;;;;;;;;5013781;28;20026;-79
2023/01/03 00:10:20;;;;;;;6.82;1.40;;;;;;;;;;5006121;28;20019;-80
2023/01/03 00:12:46;;;;;;;2.72;1.35;;;;;;;;;;4997004;28;20049;-79
2023/01/03 00:15:16;;;;;;;2.58;1.38;;;;;;;;;;4998002;28;20130;-79
2023/01/03 00:17:42;;;;;;;2.10;1.15;;;;;;;;;;4996974;28;20092;-80
2023/01/03 00:20:09;;;;;;;4.13;1.10;;;;;;;;;;4997845;28;20026;-78
2023/01/03 00:22:36;;;;;;;4.60;1.27;;;;;;;;;;4997921;28;20030;-78
2023/01/03 00:25:02;;;;;;;4.10;2.08;;;;;;;;;;4997126;28;20652;-78
2023/01/03 00:27:28;;;;;;;5.03;1.25;;;;;;;;;;4998740;28;20033;-78
2023/01/03 00:29:54;;;;;;;3.97;1.77;;;;;;;;;;5003113;28;20033;-80
2023/01/03 00:32:21;;;;;;;3.03;1.15;;;;;;;;;;5011145;28;20018;-80
2023/01/03 00:34:47;;;;;;;3.40;1.52;;;;;;;;;;5010627;28;20054;-80
2023/01/03 00:37:14;;;;;;;5.90;1.63;;;;;;;;;;5007644;28;20441;-80
2023/01/03 00:39:40;;;;;;;3.75;1.30;;;;;;;;;;4993594;28;20419;-79
2023/01/03 00:42:07;;;;;;;8.13;1.98;;;;;;;;;;4976723;28;20034;-80
2023/01/03 00:44:33;;;;;;;2.92;1.40;;;;;;;;;;4976778;28;20166;-80
2023/01/03 00:46:59;;;;;;;1.83;1.45;;;;;;;;;;4984211;28;20041;-81
2023/01/03 00:49:25;;;;;;;3.78;1.88;;;;;;;;;;4997592;28;20022;-79
2023/01/03 00:51:54;;;;;;;6.68;2.22;;;;;;;;;;4996373;28;20030;-80
2023/01/03 00:54:21;;;;;;;4.65;2.00;;;;;;;;;;4996693;28;20030;-80
2023/01/03 00:56:48;;;;;;;4.25;1.80;;;;;;;;;;4997102;28;20038;-78
2023/01/03 00:59:15;;;;;;;3.78;1.77;;;;;;;;;;4998011;28;20026;-79
2023/01/03 01:01:43;;;;;;;5.18;1.88;;;;;;;;;;4995300;28;20032;-79
2023/01/03 01:04:10;;;;;;;2.33;1.70;;;;;;;;;;5015238;28;20604;-80
2023/01/03 01:06:49;;;;;;;7.35;2.65;;;;;;;;;;5000103;28;20078;-79
2023/01/03 01:09:18;;;;;;;4.50;2.03;;;;;;;;;;5000257;28;20023;-78
2023/01/03 01:11:44;;;;;;;4.60;1.77;;;;;;;;;;5001070;28;20030;-78
2023/01/03 01:14:20;;;;;;;4.25;1.65;;;;;;;;;;5000395;28;20482;-80
2023/01/03 01:16:53;;;;;;;4.57;1.90;;;;;;;;;;5015905;28;20512;-78
2023/01/03 01:19:21;;;;;;;7.32;2.15;;;;;;;;;;5002522;28;20488;-79
2023/01/03 01:21:47;;;;;;;3.30;1.63;;;;;;;;;;5001821;28;20497;-78
2023/01/03 01:24:13;;;;;;;7.85;2.38;;;;;;;;;;5002789;28;20084;-78
2023/01/03 01:26:39;;;;;;;2.58;1.33;;;;;;;;;;5004114;28;20029;-78
2023/01/03 01:29:06;;;;;;;2.53;1.40;;;;;;;;;;5004088;28;20018;-79
2023/01/03 01:31:32;;;;;;;4.15;1.42;;;;;;;;;;5004590;28;20058;-79
2023/01/03 01:33:58;;;;;;;4.15;1.48;;;;;;;;;;5004996;28;20441;-78
2023/01/03 01:36:29;;;;;;;2.38;1.10;;;;;;;;;;5019489;28;20014;-79
2023/01/03 01:38:57;;;;;;;3.60;1.13;;;;;;;;;;5003381;28;20489;-78
2023/01/03 01:44:36;;;;;;;1.35;0.82;;;;;;;;;;5001734;28;20110;-79
2023/01/03 01:47:02;;;;;;;3.03;1.00;;;;;;;;;;5002925;28;20074;-78
2023/01/03 01:49:28;;;;;;;1.52;0.93;;;;;;;;;;5003625;28;20023;-79
2023/01/03 01:51:54;;;;;;;1.10;0.85;;;;;;;;;;5000529;28;20031;-79
2023/01/03 01:54:21;;;;;;;1.45;1.15;;;;;;;;;;4998130;28;20022;-80
2023/01/03 01:56:48;;;;;;;0.75;0.70;;;;;;;;;;5000050;28;20042;-79
2023/01/03 01:59:15;;;;;;;1.10;0.70;;;;;;;;;;4999935;28;20037;-79
2023/01/03 02:01:42;;;;;;;1.48;0.80;;;;;;;;;;5000480;28;20440;-79
2023/01/03 02:04:16;;;;;;;2.55;0.70;;;;;;;;;;4999644;28;20375;-78
2023/01/03 02:06:43;;;;;;;1.50;0.63;;;;;;;;;;4999993;28;20081;-79
2023/01/03 02:09:09;;;;;;;2.25;0.70;;;;;;;;;;5000138;28;20015;-79
2023/01/03 02:11:44;;;;;;;0.80;0.50;;;;;;;;;;5000380;28;20030;-79
2023/01/03 02:14:16;;;;;;;2.10;0.55;;;;;;;;;;4998128;28;20065;-79
2023/01/03 02:16:47;;;;;;;1.55;0.50;;;;;;;;;;5000011;28;20085;-79
2023/01/03 02:19:13;;;;;;;1.27;0.40;;;;;;;;;;5002107;28;20032;-79
2023/01/03 02:21:39;;;;;;;1.50;0.50;;;;;;;;;;4999449;28;20041;-79
2023/01/03 02:24:22;;;;;;;0.32;0.25;;;;;;;;;;4999863;28;20030;-79
2023/01/03 02:27:02;;;;;;;1.17;0.45;;;;;;;;;;4998825;28;20090;-79
2023/01/03 02:29:28;;;;;;;0.90;0.40;;;;;;;;;;4999784;28;20018;-79
2023/01/03 02:31:54;;;;;;;0.43;0.30;;;;;;;;;;4989610;28;20034;-79
2023/01/03 02:34:20;;;;;;;0.43;0.40;;;;;;;;;;4981001;28;20134;-78
2023/01/03 02:36:49;;;;;;;0.38;0.38;;;;;;;;;;4987711;28;20115;-79
2023/01/03 02:39:24;;;;;;;1.98;0.38;;;;;;;;;;5002489;28;20096;-79
2023/01/03 02:45:04;;;;;;;0.30;0.30;;;;;;;;;;5011431;28;20053;-79
2023/01/03 02:47:33;;;;;;;1.85;0.30;;;;;;;;;;5011755;28;20057;-80
2023/01/03 02:50:01;;;;;;;0.20;0.20;;;;;;;;;;5013645;28;20029;-79
2023/01/03 02:52:28;;;;;;;0.30;0.30;;;;;;;;;;5013017;28;20034;-79
2023/01/03 02:54:57;;;;;;;1.15;0.30;;;;;;;;;;5011895;28;20374;-78
2023/01/03 02:57:29;;;;;;;0.30;0.30;;;;;;;;;;5012383;28;20126;-79
2023/01/03 02:59:58;;;;;;;0.32;0.20;;;;;;;;;;5002149;28;20026;-79
2023/01/03 03:02:31;;;;;;;0.28;0.28;;;;;;;;;;4998568;28;20022;-80
2023/01/03 03:04:57;;;;;;;0.38;0.30;;;;;;;;;;4998035;28;20014;-79
2023/01/03 03:07:29;;;;;;;0.50;0.40;;;;;;;;;;4996196;28;20072;-80
2023/01/03 03:15:30;;;;;;;1.25;0.40;;;;;;;;;;5001942;28;20057;-78
2023/01/03 03:18:00;;;;;;;0.20;0.20;;;;;;;;;;4998891;28;20053;-78
2023/01/03 03:26:02;;;;;;;0.55;0.55;;;;;;;;;;4998446;28;20042;-79
2023/01/03 03:28:35;;;;;;;0.73;0.40;;;;;;;;;;4999050;28;20037;-78
2023/01/03 03:31:09;;;;;;;0.10;0.10;;;;;;;;;;5000183;28;20018;-79
2023/01/03 03:33:40;;;;;;;0.30;0.30;;;;;;;;;;4999070;28;20068;-79
2023/01/03 03:36:10;;;;;;;0.20;0.20;;;;;;;;;;4997889;28;20098;-78
2023/01/03 03:38:43;;;;;;;0.17;0.17;;;;;;;;;;4998740;28;20023;-78
2023/01/03 03:46:44;;;;;;;0.20;0.20;;;;;;;;;;4997928;28;20090;-79
2023/01/03 03:51:59;;;;;;;0.32;0.20;;;;;;;;;;4998562;28;20057;-78
2023/01/03 03:54:25;;;;;;;0.10;0.10;;;;;;;;;;4998101;28;20030;-79
2023/01/03 03:56:55;;;;;;;0.20;0.20;;;;;;;;;;4997532;28;20022;-79
2023/01/03 03:59:23;;;;;;;0.10;0.10;;;;;;;;;;4983654;28;20026;-79
2023/01/03 04:01:50;;;;;;;0.88;0.30;;;;;;;;;;4998674;28;20042;-78
2023/01/03 04:04:22;;;;;;;0.30;0.20;;;;;;;;;;4999742;28;20041;-78
2023/01/03 04:06:49;;;;;;;0.30;0.30;;;;;;;;;;4997846;28;20050;-78
2023/01/03 04:09:15;;;;;;;1.20;0.30;;;;;;;;;;4997664;28;20366;-77
2023/01/03 04:11:42;;;;;;;0.30;0.30;;;;;;;;;;4998797;28;20106;-79
2023/01/03 04:14:08;;;;;;;0.30;0.30;;;;;;;;;;4996841;28;20092;-79
2023/01/03 04:16:36;;;;;;;0.20;0.20;;;;;;;;;;4996874;28;20054;-79
2023/01/03 04:19:02;;;;;;;0.40;0.40;;;;;;;;;;4997249;28;20593;-79
2023/01/03 04:21:28;;;;;;;0.43;0.43;;;;;;;;;;4998053;28;20371;-79
2023/01/03 04:23:54;;;;;;;0.68;0.40;;;;;;;;;;4997036;28;20385;-79
2023/01/03 04:26:20;;;;;;;0.20;0.20;;;;;;;;;;4996438;28;20108;-79
2023/01/03 04:28:46;;;;;;;0.52;0.30;;;;;;;;;;4995827;28;20424;-79
2023/01/03 04:31:13;;;;;;;0.35;0.30;;;;;;;;;;4997865;28;20473;-78
2023/01/03 04:33:39;;;;;;;0.50;0.50;;;;;;;;;;4998040;28;20073;-79
2023/01/03 04:36:05;;;;;;;0.55;0.55;;;;;;;;;;4996980;28;20026;-79
2023/01/03 04:38:31;;;;;;;0.30;0.30;;;;;;;;;;4982081;28;20122;-79
2023/01/03 04:41:03;;;;;;;0.28;0.28;;;;;;;;;;4982127;28;20019;-78
2023/01/03 04:46:14;;;;;;;0.40;0.40;;;;;;;;;;4983335;28;20436;-79
2023/01/03 04:48:40;;;;;;;0.52;0.52;;;;;;;;;;5002688;28;20436;-79
2023/01/03 04:51:06;;;;;;;0.60;0.40;;;;;;;;;;5002503;28;20023;-78
2023/01/03 04:53:32;;;;;;;2.17;0.50;;;;;;;;;;5002650;28;20030;-78
2023/01/03 04:55:58;;;;;;;0.43;0.38;;;;;;;;;;5001366;28;20021;-79
2023/01/03 04:58:24;;;;;;;0.40;0.40;;;;;;;;;;5001739;28;20080;-79
2023/01/03 05:00:51;;;;;;;0.32;0.20;;;;;;;;;;5000112;28;20394;-79
2023/01/03 05:03:17;;;;;;;0.55;0.55;;;;;;;;;;5000713;28;20046;-79
2023/01/03 05:05:43;;;;;;;0.68;0.47;;;;;;;;;;5003971;28;20029;-78
2023/01/03 05:08:11;;;;;;;0.55;0.38;;;;;;;;;;5014472;28;20056;-79
2023/01/03 05:10:37;;;;;;;0.28;0.28;;;;;;;;;;5016363;28;20030;-79
2023/01/03 05:13:04;;;;;;;2.10;0.50;;;;;;;;;;5017317;28;20026;-78
2023/01/03 05:15:30;;;;;;;0.63;0.50;;;;;;;;;;5003424;28;20026;-79
2023/01/03 05:17:56;;;;;;;0.57;0.57;;;;;;;;;;5003683;28;20077;-78
2023/01/03 05:26:09;;;;;;;0.73;0.50;;;;;;;;;;5001524;28;20038;-78
2023/01/03 05:28:35;;;;;;;;;;;;;;;;;;4996850;28;20033;-79
2023/01/03 05:31:01;;;;;;;0.68;0.68;;;;;;;;;;5002348;28;19905;-79
2023/01/03 05:33:27;;;;;;;0.68;0.45;;;;;;;;;;5002357;28;20413;-78
2023/01/03 05:35:53;;;;;;;2.10;0.40;;;;;;;;;;4994041;28;20093;-79
2023/01/03 05:38:19;;;;;;;0.50;0.50;;;;;;;;;;4998854;28;20046;-79
2023/01/03 05:40:45;;;;;;;0.88;0.60;;;;;;;;;;5001862;28;20030;-78
2023/01/03 05:43:12;;;;;;;0.50;0.50;;;;;;;;;;5000955;28;20019;-79
2023/01/03 05:45:38;;;;;;;0.57;0.32;;;;;;;;;;5000218;28;20068;-79
2023/01/03 05:48:05;;;;;;;1.25;0.55;;;;;;;;;;4999610;28;20015;-79
2023/01/03 05:50:31;;;;;;;1.70;0.50;;;;;;;;;;4999912;28;20030;-79
2023/01/03 05:52:57;;;;;;;0.52;0.52;;;;;;;;;;5000379;28;20030;-79
2023/01/03 05:55:23;;;;;;;0.70;0.70;;;;;;;;;;5001237;28;20033;-79
2023/01/03 05:57:49;;;;;;;0.63;0.50;;;;;;;;;;4998602;28;20362;-79
2023/01/03 06:00:15;;;;;;;0.65;0.65;;;;;;;;;;4998982;28;20053;-79
2023/01/03 06:02:41;;;;;;;1.67;0.60;;;;;;;;;;5015010;28;20046;-78
2023/01/03 06:05:08;;;;;;;1.30;0.95;;;;;;;;;;5016386;28;20034;-79
2023/01/03 06:07:36;;;;;;;1.05;0.75;;;;;;;;;;4999012;28;20022;-79
2023/01/03 06:10:03;;;;;;;0.80;0.60;;;;;;;;;;4999400;28;20106;-78
2023/01/03 06:12:29;;;;;;;0.60;0.55;;;;;;;;;;5000266;28;20042;-79
2023/01/03 06:14:55;;;;;;;0.60;0.60;;;;;;;;;;5000031;28;20034;-79
2023/01/03 06:20:07;;;;;;;1.95;0.80;;;;;;;;;;5000546;28;20041;-80
2023/01/03 06:22:33;;;;;;;0.77;0.70;;;;;;;;;;4999996;28;20077;-80
2023/01/03 06:24:59;;;;;;;0.95;0.85;;;;;;;;;;5000439;28;20026;-79
2023/01/03 06:27:25;;;;;;;1.58;0.77;;;;;;;;;;5004096;28;20030;-79
2023/01/03 06:29:51;;;;;;;1.17;0.70;;;;;;;;;;4997534;28;20555;-80
2023/01/03 06:32:17;;;;;;;0.82;0.80;;;;;;;;;;4997850;28;20030;-79
2023/01/03 06:34:43;;;;;;;1.15;0.88;;;;;;;;;;4996629;28;20034;-79
2023/01/03 06:37:09;;;;;;;0.90;0.88;;;;;;;;;;4996652;28;20026;-80
2023/01/03 06:39:36;;;;;;;1.02;0.73;;;;;;;;;;4998615;28;20113;-79
2023/01/03 06:42:38;;;;;;;1.63;0.80;;;;;;;;;;4997792;28;20022;-81
2023/01/03 06:53:10;;;;;;;1.38;1.00;;;;;;;;;;4998965;28;20030;-79
2023/01/03 06:53:13;;;;;;;2.70;1.52;;;;;;;;;;4997578;28;20072;-79
2023/01/03 06:55:40;;;;;;;1.00;0.80;;;;;;;;;;4995439;28;20030;-79
2023/01/03 06:58:06;;;;;;;1.23;0.70;;;;;;;;;;4996889;28;20022;-80
2023/01/03 07:00:32;;;;;;;0.82;0.82;;;;;;;;;;4996322;28;20409;-80
2023/01/03 07:02:58;;;;;;;1.30;1.20;;;;;;;;;;4996425;28;20026;-80
2023/01/03 07:05:24;;;;;;;3.08;0.90;;;;;;;;;;4997098;28;20397;-80
2023/01/03 07:07:50;;;;;;;1.40;1.00;;;;;;;;;;4996652;28;20034;-80
2023/01/03 07:10:16;;;;;;;1.38;0.90;;;;;;;;;;4995875;28;20031;-80
2023/01/03 07:15:27;;;;;;;1.80;1.10;;;;;;;;;;4996244;28;20037;-80
2023/01/03 07:17:54;;;;;;;2.10;1.33;;;;;;;;;;4992604;28;20482;-80
2023/01/03 07:20:20;;;;;;;3.38;1.85;;;;;;;;;;4978479;28;20035;-79
2023/01/03 07:22:46;;;;;;;2.72;1.20;;;;;;;;;;4978523;28;20031;-79
2023/01/03 07:25:12;;;;;;;1.95;1.13;;;;;;;;;;4999800;28;20023;-80
2023/01/03 07:27:38;;;;;;;6.93;1.92;;;;;;;;;;4997616;28;20512;-80
2023/01/03 07:30:04;;;;;;;7.93;1.83;;;;;;;;;;4997892;28;20030;-80
2023/01/03 07:32:30;;;;;;;2.38;1.30;;;;;;;;;;4999150;28;20033;-79
2023/01/03 07:34:56;;;;;;;2.47;1.55;;;;;;;;;;4999416;28;20030;-79
2023/01/03 07:37:22;;;;;;;1.85;1.23;;;;;;;;;;5001459;28;20022;-78
2023/01/03 07:39:49;;;;;;;2.38;1.67;;;;;;;;;;5000525;28;20500;-78
2023/01/03 07:45:00;;;;;;;2.25;1.30;;;;;;;;;;4997704;28;20025;-79
2023/01/03 07:47:26;;;;;;;2.10;1.35;;;;;;;;;;4998591;28;20061;-80
2023/01/03 07:49:52;;;;;;;1.85;1.52;;;;;;;;;;4998715;28;20488;-80
2023/01/03 07:52:18;;;;;;;1.92;1.25;;;;;;;;;;4999237;28;20084;-80
2023/01/03 07:54:44;;;;;;;1.45;1.35;;;;;;;;;;4999409;28;20030;-77
2023/01/03 07:57:10;;;;;;;1.88;1.50;;;;;;;;;;4997059;28;20023;-80
2023/01/03 07:59:36;;;;;;;2.92;1.35;;;;;;;;;;4997607;28;20084;-80
2023/01/03 08:02:05;;;;;;;1.60;1.50;;;;;;;;;;4999165;28;20062;-80
2023/01/03 08:04:31;;;;;;;1.65;1.42;;;;;;;;;;4996487;28;20046;-79
2023/01/03 08:06:57;;;;;;;2.33;1.65;;;;;;;;;;4996399;28;20022;-79
2023/01/03 08:14:53;;;;;;;2.50;1.60;;;;;;;;;;4997241;28;20037;-79
2023/01/03 08:17:19;;;;;;;1.90;1.50;;;;;;;;;;5000110;28;20054;-78
2023/01/03 08:19:46;;;;;;;3.50;1.45;;;;;;;;;;5007910;28;20536;-78
2023/01/03 08:22:12;;;;;;;3.35;1.55;;;;;;;;;;5006759;28;20026;-78
2023/01/03 08:24:38;;;;;;;1.65;1.40;;;;;;;;;;5006819;28;20086;-78
2023/01/03 08:27:04;;;;;;;1.85;1.52;;;;;;;;;;5015994;28;20049;-78
2023/01/03 08:29:30;;;;;;;2.70;1.48;;;;;;;;;;5009661;28;20033;-78
2023/01/03 08:31:58;;;;;;;1.80;1.40;;;;;;;;;;5008095;28;20030;-79
2023/01/03 08:34:26;;;;;;;1.48;1.20;;;;;;;;;;5010043;28;20026;-79
2023/01/03 08:36:59;;;;;;;3.10;1.80;;;;;;;;;;5009563;28;20018;-79
2023/01/03 08:39:26;;;;;;;2.35;1.48;;;;;;;;;;5008220;28;20026;-78
2023/01/03 08:41:56;;;;;;;2.35;1.50;;;;;;;;;;5002141;28;20031;-78
2023/01/03 08:44:22;;;;;;;4.10;2.08;;;;;;;;;;5003543;28;20069;-81
2023/01/03 08:46:51;;;;;;;2.70;1.50;;;;;;;;;;5002611;28;20026;-79
2023/01/03 08:49:18;;;;;;;2.33;1.50;;;;;;;;;;4996288;28;20049;-78
2023/01/03 08:51:44;;;;;;;1.77;1.20;;;;;;;;;;5007772;28;20078;-78
2023/01/03 08:54:10;;;;;;;3.35;1.73;;;;;;;;;;5011894;28;20018;-78
2023/01/03 08:56:36;;;;;;;1.77;1.30;;;;;;;;;;5009191;28;20030;-77
2023/01/03 08:59:02;;;;;;;2.30;1.52;;;;;;;;;;5007598;28;20051;-77
2023/01/03 09:01:28;;;;;;;2.25;1.63;;;;;;;;;;5000484;28;20068;-78
2023/01/03 09:03:54;;;;;;;2.25;1.60;;;;;;;;;;5012967;28;20026;-79
2023/01/03 09:06:20;;;;;;;4.28;1.60;;;;;;;;;;4996265;28;20049;-79
2023/01/03 09:08:46;;;;;;;1.90;1.52;;;;;;;;;;5006327;28;20101;-79
2023/01/03 09:11:13;;;;;;;2.20;1.45;;;;;;;;;;5022538;28;20086;-79
2023/01/03 09:13:39;;;;;;;1.40;1.27;;;;;;;;;;5007879;28;20041;-81
2023/01/03 09:16:07;;;;;;;3.22;1.58;;;;;;;;;;5004307;28;20130;-80
2023/01/03 09:18:33;;;;;;;4.43;1.88;;;;;;;;;;5001279;28;20027;-81
2023/01/03 09:21:01;;;;;;;3.53;1.60;;;;;;;;;;5000567;28;20086;-81
2023/01/03 09:23:35;;;;;;;3.22;1.90;;;;;;;;;;5001107;28;20215;-80
2023/01/03 09:26:01;;;;;;;1.88;1.77;;;;;;;;;;5005119;28;20026;-79
2023/01/03 09:28:27;;;;;;;3.35;2.00;;;;;;;;;;5008788;28;20101;-79
2023/01/03 09:30:53;;;;;;;2.25;1.70;;;;;;;;;;5010065;28;20029;-81
2023/01/03 09:33:19;;;;;;;2.42;1.52;;;;;;;;;;5011363;28;20620;-79
2023/01/03 09:35:46;;;;;;;1.50;1.35;;;;;;;;;;5009901;28;20040;-81
2023/01/03 09:38:12;;;;;;;1.80;1.70;;;;;;;;;;5008307;28;20030;-79
2023/01/03 09:40:40;;;;;;;3.47;1.30;;;;;;;;;;5012928;28;20035;-80
2023/01/03 09:43:12;;;;;;;1.65;1.25;;;;;;;;;;5011849;28;20026;-80
2023/01/03 09:45:42;;;;;;;0.98;0.98;;;;;;;;;;5010744;28;20109;-80
2023/01/03 09:48:09;;;;;;;1.27;1.17;;;;;;;;;;5012433;28;20073;-79
2023/01/03 09:50:37;;;;;;;1.25;0.88;;;;;;;;;;5011906;28;20027;-80
2023/01/03 10:04:31;;;;;;;1.35;1.25;;;;;;;;;;5000425;28;20053;-78
2023/01/03 10:07:03;;;;;;;3.75;1.70;;;;;;;;;;5000798;28;20037;-79
2023/01/03 10:09:35;;;;;;;1.27;1.17;;;;;;;;;;5000504;28;20022;-81
2023/01/03 10:12:12;;;;;;;1.90;1.30;;;;;;;;;;5000247;28;20031;-80
2023/01/03 10:14:45;;;;;;;1.92;1.60;;;;;;;;;;5003694;28;20077;-79
2023/01/03 10:17:30;;;;;;;2.45;1.40;;;;;;;;;;5005795;28;20037;-79
2023/01/03 10:20:08;;;;;;;2.92;1.38;;;;;;;;;;4981193;28;20035;-81
2023/01/03 10:22:35;;;;;;;1.25;1.15;;;;;;;;;;4987417;28;20030;-80
2023/01/03 10:25:04;;;;;;;1.60;1.40;;;;;;;;;;4986888;28;20026;-80
2023/01/03 10:27:33;;;;;;;2.17;1.38;;;;;;;;;;4992219;28;20030;-80
2023/01/03 10:30:01;;;;;;;1.40;1.02;;;;;;;;;;5004403;28;20126;-80
2023/01/03 10:32:48;;;;;;;1.55;1.27;;;;;;;;;;5005174;28;20405;-79
2023/01/03 10:35:24;;;;;;;1.65;1.20;;;;;;;;;;4964663;28;20038;-80
2023/01/03 10:37:52;;;;;;;1.95;1.45;;;;;;;;;;5007435;28;20022;-80
2023/01/03 10:40:18;;;;;;;1.10;1.00;;;;;;;;;;5009394;28;20037;-79
2023/01/03 10:42:45;;;;;;;1.20;0.98;;;;;;;;;;5003723;28;20019;-81
2023/01/03 10:45:12;;;;;;;1.52;1.40;;;;;;;;;;5003372;28;20019;-80
2023/01/03 10:47:38;;;;;;;1.90;1.15;;;;;;;;;;4998165;28;20041;-80
2023/01/03 10:50:05;;;;;;;3.00;1.52;;;;;;;;;;5003878;28;20050;-79
2023/01/03 10:52:33;;;;;;;1.55;1.45;;;;;;;;;;4999032;28;20559;-79
2023/01/03 10:55:00;;;;;;;3.28;1.90;;;;;;;;;;5010803;28;20073;-78
2023/01/03 10:57:37;;;;;;;2.15;1.40;;;;;;;;;;5009844;28;20026;-79
2023/01/03 11:00:25;;;;;;;2.25;1.48;;;;;;;;;;5005710;28;20052;-81
2023/01/03 11:02:51;;;;;;;1.58;1.30;;;;;;;;;;5006712;28;20069;-80
2023/01/03 11:05:22;;;;;;;2.22;1.40;;;;;;;;;;5006793;28;20034;-82
2023/01/03 11:07:55;;;;;;;1.10;1.00;;;;;;;;;;5007075;28;20030;-80
2023/01/03 11:10:22;;;;;;;1.27;1.00;;;;;;;;;;5005448;28;20053;-79
2023/01/03 11:12:48;;;;;;;1.10;1.00;;;;;;;;;;5001829;28;20022;-79
2023/01/03 11:15:19;;;;;;;4.20;1.50;;;;;;;;;;4996475;28;20041;-79
2023/01/03 11:17:55;;;;;;;1.50;1.40;;;;;;;;;;5004460;28;20022;-79
2023/01/03 11:20:28;;;;;;;3.28;1.50;;;;;;;;;;4997587;28;20246;-78
2023/01/03 11:22:54;;;;;;;;;;;;;;;;;;5001077;28;20027;-80
2023/01/03 11:25:38;;;;;;;1.63;1.48;;;;;;;;;;5005502;28;19916;-82
2023/01/03 11:28:23;;;;;;;2.72;2.20;;;;;;;;;;5005709;28;20056;-80
2023/01/03 11:30:58;;;;;;;2.08;1.30;;;;;;;;;;5001642;28;20023;-80
2023/01/03 11:33:37;;;;;;;0.80;0.80;;;;;;;;;;5006898;28;20030;-81
2023/01/03 11:36:09;;;;;;;1.35;1.10;;;;;;;;;;5007140;28;20058;-80
2023/01/03 11:38:44;;;;;;;1.55;0.68;;;;;;;;;;5005188;28;20042;-81
2023/01/03 11:41:14;;;;;;;1.00;1.00;;;;;;;;;;5004723;28;20048;-80
2023/01/03 11:43:40;;;;;;;1.30;1.20;;;;;;;;;;5003275;28;20031;-81
2023/01/03 11:46:12;;;;;;;2.67;1.00;;;;;;;;;;5003655;28;20450;-80
2023/01/03 11:48:58;;;;;;;0.73;0.70;;;;;;;;;;5003413;28;20033;-81
2023/01/03 11:51:35;;;;;;;3.15;1.55;;;;;;;;;;5003697;28;20454;-79
2023/01/03 11:54:02;;;;;;;1.45;0.90;;;;;;;;;;5002102;28;20041;-80
2023/01/03 11:56:30;;;;;;;2.83;0.88;;;;;;;;;;5003106;28;20023;-79
2023/01/03 11:59:02;;;;;;;1.55;0.90;;;;;;;;;;5002897;28;20022;-79
2023/01/03 12:01:47;;;;;;;1.20;1.10;;;;;;;;;;5004218;28;20037;-79
2023/01/03 12:04:25;;;;;;;3.28;1.45;;;;;;;;;;5002238;28;20027;-81
2023/01/03 12:07:04;;;;;;;3.22;1.92;;;;;;;;;;5003304;28;20094;-79
2023/01/03 12:09:30;;;;;;;1.40;1.20;;;;;;;;;;5003362;28;20053;-82
2023/01/03 12:12:02;;;;;;;3.63;1.60;;;;;;;;;;5005191;28;20030;-80
2023/01/03 12:14:55;;;;;;;2.78;1.88;;;;;;;;;;5002259;28;20037;-81
2023/01/03 12:17:27;;;;;;;4.07;1.50;;;;;;;;;;5000211;28;20037;-82
2023/01/03 12:19:53;;;;;;;1.45;0.90;;;;;;;;;;5003613;28;20045;-81
2023/01/03 12:22:41;;;;;;;1.20;0.95;;;;;;;;;;5003185;28;20061;-81
2023/01/03 12:25:22;;;;;;;2.28;1.65;;;;;;;;;;5001989;28;20030;-79
2023/01/03 12:27:50;;;;;;;2.28;1.60;;;;;;;;;;5003270;28;20035;-80
2023/01/03 12:30:35;;;;;;;1.63;1.50;;;;;;;;;;5004033;28;20026;-80
2023/01/03 12:33:16;;;;;;;1.40;1.30;;;;;;;;;;5004285;28;20029;-80
2023/01/03 12:35:48;;;;;;;1.23;1.13;;;;;;;;;;5005142;28;20038;-80
2023/01/03 12:38:15;;;;;;;1.23;1.00;;;;;;;;;;5004526;28;20030;-80
2023/01/03 12:40:45;;;;;;;1.35;1.20;;;;;;;;;;5008502;28;20383;-80
2023/01/03 12:43:13;;;;;;;1.25;1.08;;;;;;;;;;4985363;28;20486;-80
2023/01/03 12:45:39;;;;;;;2.38;1.60;;;;;;;;;;4984258;28;20019;-80
2023/01/03 12:48:08;;;;;;;3.13;2.00;;;;;;;;;;4983816;28;20029;-81
2023/01/03 12:50:37;;;;;;;2.33;1.90;;;;;;;;;;4994030;28;20022;-81
2023/01/03 12:53:03;;;;;;;1.92;1.77;;;;;;;;;;5005388;28;20061;-80
2023/01/03 12:55:49;;;;;;;2.80;1.63;;;;;;;;;;5002672;28;20037;-80
2023/01/03 12:58:21;;;;;;;1.90;1.70;;;;;;;;;;4969906;28;20042;-80
2023/01/03 13:00:51;;;;;;;2.85;2.00;;;;;;;;;;5001542;28;20058;-82
2023/01/03 13:03:53;;;;;;;2.42;1.52;;;;;;;;;;4986600;28;20113;-81
2023/01/03 13:06:25;;;;;;;2.85;1.30;;;;;;;;;;4948347;29;20148;-82
2023/01/03 13:08:53;;;;;;;1.67;1.50;;;;;;;;;;4985590;28;20027;-82
2023/01/03 13:11:19;;;;;;;2.92;1.75;;;;;;;;;;4997056;28;20019;-81
2023/01/03 13:13:53;;;;;;;1.90;1.60;;;;;;;;;;5007080;28;20031;-82
2023/01/03 13:16:29;;;;;;;1.77;1.23;;;;;;;;;;5005319;28;20030;-81
2023/01/03 13:18:55;;;;;;;4.03;1.70;;;;;;;;;;5005370;28;20037;-81
2023/01/03 13:21:45;;;;;;;1.50;1.40;;;;;;;;;;5007233;28;20027;-82
2023/01/03 13:24:11;;;;;;;0.93;0.93;;;;;;;;;;5007463;28;20030;-81
2023/01/03 13:26:37;;;;;;;2.13;1.33;;;;;;;;;;5008274;28;20041;-81
2023/01/03 13:29:21;;;;;;;1.30;1.00;;;;;;;;;;5006529;28;20022;-81
2023/01/03 13:32:01;;;;;;;1.83;1.17;;;;;;;;;;5004432;28;20039;-80
2023/01/03 13:34:27;;;;;;;2.58;1.10;;;;;;;;;;5003873;28;20034;-80
2023/01/03 13:37:06;;;;;;;1.77;1.33;;;;;;;;;;5003220;28;20018;-83
2023/01/03 13:39:50;;;;;;;2.65;1.10;;;;;;;;;;5006474;28;20026;-79
2023/01/03 13:42:22;;;;;;;1.05;0.93;;;;;;;;;;5008737;28;20027;-83
2023/01/03 13:44:48;;;;;;;0.98;0.88;;;;;;;;;;5007352;28;20026;-82
2023/01/03 13:47:25;;;;;;;2.65;0.90;;;;;;;;;;5020870;28;20388;-81
2023/01/03 13:49:51;;;;;;;1.90;1.08;;;;;;;;;;5024593;28;20027;-83
2023/01/03 13:52:34;;;;;;;1.30;1.00;;;;;;;;;;5004565;28;20030;-81
2023/01/03 13:55:01;;;;;;;3.70;1.70;;;;;;;;;;5022408;28;20038;-82
2023/01/03 13:57:35;;;;;;;2.05;1.20;;;;;;;;;;5009270;28;20810;-80
2023/01/03 14:00:02;;;;;;;2.42;1.10;;;;;;;;;;5008376;28;20484;-80
2023/01/03 14:02:58;;;;;;;1.20;1.13;;;;;;;;;;5002258;28;20101;-82
2023/01/03 14:05:31;;;;;;;0.95;0.77;;;;;;;;;;4996886;28;20022;-82
2023/01/03 14:08:09;;;;;;;1.58;1.05;;;;;;;;;;5006867;28;20031;-82
2023/01/03 14:10:47;;;;;;;2.83;0.98;;;;;;;;;;5004853;28;20030;-83
2023/01/03 14:13:36;;;;;;;1.58;1.10;;;;;;;;;;5005735;28;20077;-83
2023/01/03 14:16:17;;;;;;;0.77;0.77;;;;;;;;;;4988120;28;20027;-82
2023/01/03 14:18:46;;;;;;;0.95;0.95;;;;;;;;;;4990348;28;20045;-80
2023/01/03 14:21:18;;;;;;;1.77;1.05;;;;;;;;;;5004765;28;20037;-83
2023/01/03 14:23:44;;;;;;;0.80;0.80;;;;;;;;;;5009009;28;20034;-82
2023/01/03 14:26:14;;;;;;;1.48;0.65;;;;;;;;;;5007781;28;20026;-82
2023/01/03 14:28:46;;;;;;;1.05;0.80;;;;;;;;;;5008636;28;20046;-82
2023/01/03 14:31:23;;;;;;;1.38;1.00;;;;;;;;;;5009833;28;20386;-83
2023/01/03 14:34:00;;;;;;;1.77;0.80;;;;;;;;;;5006871;28;20030;-83
2023/01/03 14:36:26;;;;;;;1.15;0.70;;;;;;;;;;5007145;28;20019;-82
2023/01/03 14:38:52;;;;;;;0.80;0.77;;;;;;;;;;5008875;28;20026;-83
2023/01/03 14:41:24;;;;;;;6.60;1.80;;;;;;;;;;5009956;28;20081;-83
2023/01/03 14:43:57;;;;;;;0.90;0.80;;;;;;;;;;5008265;28;20081;-83
2023/01/03 14:46:23;;;;;;;2.20;1.10;;;;;;;;;;5008995;28;20027;-83
2023/01/03 14:48:50;;;;;;;2.97;1.30;;;;;;;;;;5008373;28;20033;-82
2023/01/03 14:51:17;;;;;;;2.85;1.23;;;;;;;;;;5007473;28;20034;-82
2023/01/03 14:53:47;;;;;;;3.28;1.00;;;;;;;;;;5005825;28;20026;-82
2023/01/03 14:56:14;;;;;;;1.10;0.95;;;;;;;;;;5001796;28;20018;-83
2023/01/03 14:58:44;;;;;;;1.90;1.08;;;;;;;;;;5004667;28;20034;-82
2023/01/03 15:01:10;;;;;;;1.15;1.05;;;;;;;;;;5016412;28;20022;-82
2023/01/03 15:03:38;;;;;;;2.65;1.10;;;;;;;;;;4988685;28;20023;-83
2023/01/03 15:06:24;;;;;;;2.85;0.98;;;;;;;;;;5019036;28;20022;-82
2023/01/03 15:08:52;;;;;;;1.52;0.98;;;;;;;;;;5024670;28;20046;-84
2023/01/03 15:11:23;;;;;;;2.78;1.65;;;;;;;;;;5010076;28;20027;-82
2023/01/03 15:13:54;;;;;;;2.83;1.83;;;;;;;;;;5021859;28;20050;-83
2023/01/03 15:16:21;;;;;;;4.50;1.85;;;;;;;;;;5019226;28;20046;-82
2023/01/03 15:18:47;;;;;;;1.70;1.50;;;;;;;;;;5013669;28;20401;-82
2023/01/03 15:21:20;;;;;;;3.47;1.63;;;;;;;;;;5003235;28;20094;-83
2023/01/03 15:23:47;;;;;;;2.60;1.40;;;;;;;;;;5003721;28;20110;-80
2023/01/03 15:26:19;;;;;;;1.98;1.45;;;;;;;;;;5004524;28;20494;-82
2023/01/03 15:28:54;;;;;;;3.10;1.80;;;;;;;;;;5006116;28;20473;-82
2023/01/03 15:31:23;;;;;;;1.98;1.60;;;;;;;;;;5004975;28;20031;-81
2023/01/03 15:34:00;;;;;;;3.58;1.63;;;;;;;;;;5004739;28;20030;-82
2023/01/03 15:36:28;;;;;;;2.00;1.45;;;;;;;;;;5003531;28;20048;-84
2023/01/03 15:38:55;;;;;;;6.18;1.50;;;;;;;;;;5004709;28;20018;-83
2023/01/03 15:44:18;;;;;;;1.08;1.08;;;;;;;;;;4997423;28;20146;-84
2023/01/03 15:46:45;;;;;;;2.08;1.60;;;;;;;;;;4993523;28;20481;-82
2023/01/03 15:49:13;;;;;;;2.38;1.55;;;;;;;;;;4987123;28;20057;-81
2023/01/03 15:51:40;;;;;;;2.70;2.17;;;;;;;;;;5007736;28;20023;-81
2023/01/03 15:54:13;;;;;;;1.63;1.50;;;;;;;;;;5013612;28;20026;-82
2023/01/03 15:56:46;;;;;;;3.10;1.60;;;;;;;;;;5018849;28;20507;-82
2023/01/03 15:59:13;;;;;;;2.10;1.80;;;;;;;;;;5008735;28;20082;-81
2023/01/03 16:01:39;;;;;;;2.08;1.70;;;;;;;;;;5007945;28;20033;-82
2023/01/03 16:04:05;;;;;;;2.05;1.65;;;;;;;;;;5006568;28;20130;-81